Time;durP1;ratioP1;P1;durP2;ratioP2;P2;SDS_P1;SDS_P2;PMS_P1;PMS_P2;Temp;Humidity;BMP_temperature;BMP_pressure;BME280_temperature;BME280_humidity;BME280_pressure;Samples;Min_cycle;Max_cycle;Signal;HPM_P1;HPM_P2
2021/11/06 00:02:16;;;;;;;7.63;1.50;;;8.40;99.90;;;;;;5092937;27;20040;-68
2021/11/06 00:04:42;;;;;;;5.55;1.40;;;8.40;99.90;;;;;;5063544;28;20037;-69
2021/11/06 00:07:08;;;;;;;7.47;1.15;;;8.40;99.90;;;;;;5062558;28;20090;-68
2021/11/06 00:09:33;;;;;;;5.47;1.00;;;8.40;99.90;;;;;;5062670;28;20238;-68
2021/11/06 00:11:59;;;;;;;4.93;1.13;;;8.40;99.90;;;;;;5060547;28;20052;-68
2021/11/06 00:14:24;;;;;;;8.30;1.48;;;8.40;99.90;;;;;;5064462;28;20466;-68
2021/11/06 00:16:50;;;;;;;4.47;1.30;;;8.40;99.90;;;;;;5061418;28;20040;-68
2021/11/06 00:19:16;;;;;;;6.22;1.00;;;8.40;99.90;;;;;;5067780;28;20048;-68
2021/11/06 00:21:41;;;;;;;3.90;1.30;;;8.40;99.90;;;;;;5069186;28;20044;-68
2021/11/06 00:24:07;;;;;;;8.75;1.67;;;8.40;99.90;;;;;;5061943;28;20040;-68
2021/11/06 00:26:33;;;;;;;7.30;1.25;;;8.40;99.90;;;;;;5097776;27;20047;-68
2021/11/06 00:28:58;;;;;;;6.40;1.30;;;8.50;99.90;;;;;;5065940;28;20055;-68
2021/11/06 00:31:24;;;;;;;7.38;1.88;;;8.50;99.90;;;;;;5061698;28;20422;-68
2021/11/06 00:33:49;;;;;;;6.75;1.58;;;8.50;99.90;;;;;;5058635;28;20075;-68
2021/11/06 00:36:15;;;;;;;10.48;1.35;;;8.40;99.90;;;;;;5064317;28;20040;-68
2021/11/06 00:38:41;;;;;;;6.30;1.27;;;8.40;99.90;;;;;;5066356;28;20048;-68
2021/11/06 00:41:06;;;;;;;2.35;0.95;;;8.50;99.90;;;;;;5065283;28;20044;-68
2021/11/06 00:43:32;;;;;;;5.75;1.10;;;8.40;99.90;;;;;;5042380;28;20040;-68
2021/11/06 00:45:57;;;;;;;6.15;1.35;;;8.50;99.90;;;;;;5062744;28;20143;-67
2021/11/06 00:48:23;;;;;;;6.20;1.73;;;8.40;99.90;;;;;;5063583;28;20048;-68
2021/11/06 00:50:49;;;;;;;5.70;0.88;;;8.50;99.90;;;;;;5062928;28;20127;-68
2021/11/06 00:53:14;;;;;;;7.75;1.33;;;8.40;99.90;;;;;;5053343;28;20147;-68
2021/11/06 00:55:40;;;;;;;5.78;1.10;;;8.40;99.90;;;;;;5052953;28;20045;-68
2021/11/06 00:58:07;;;;;;;11.38;1.20;;;8.50;99.90;;;;;;5056229;28;20490;-68
2021/11/06 01:00:32;;;;;;;9.35;1.20;;;8.40;99.90;;;;;;5055251;28;20048;-68
2021/11/06 01:02:58;;;;;;;3.88;1.20;;;8.40;99.90;;;;;;5054231;28;20036;-68
2021/11/06 01:05:24;;;;;;;7.47;1.38;;;8.40;99.90;;;;;;5056090;28;20394;-68
2021/11/06 01:07:49;;;;;;;7.30;1.90;;;8.40;99.90;;;;;;5054340;28;20044;-68
2021/11/06 01:10:16;;;;;;;8.27;1.50;;;8.40;99.90;;;;;;5054928;28;20487;-68
2021/11/06 01:12:43;;;;;;;6.47;1.15;;;8.40;99.90;;;;;;5054745;28;20083;-68
2021/11/06 01:15:12;;;;;;;7.38;2.00;;;8.30;99.90;;;;;;5054267;28;20036;-68
2021/11/06 01:17:38;;;;;;;6.85;1.42;;;8.30;99.90;;;;;;5057835;28;20036;-68
2021/11/06 01:20:06;;;;;;;8.48;1.40;;;8.30;99.90;;;;;;5055097;28;20368;-68
2021/11/06 01:22:31;;;;;;;7.85;1.45;;;8.20;99.90;;;;;;5056565;28;20048;-68
2021/11/06 01:24:57;;;;;;;3.85;1.30;;;8.30;99.90;;;;;;5059749;28;20472;-68
2021/11/06 01:27:23;;;;;;;6.30;2.22;;;8.20;99.90;;;;;;5062108;28;20111;-69
2021/11/06 01:29:48;;;;;;;10.25;1.80;;;8.20;99.90;;;;;;5061482;28;20134;-68
2021/11/06 01:32:14;;;;;;;6.20;1.55;;;8.20;99.90;;;;;;5060989;28;20032;-68
2021/11/06 01:34:40;;;;;;;5.68;1.45;;;8.10;99.90;;;;;;5059198;28;20524;-68
2021/11/06 01:37:06;;;;;;;12.60;2.38;;;8.10;99.90;;;;;;5093218;27;20045;-68
2021/11/06 01:39:32;;;;;;;10.18;1.90;;;8.10;99.90;;;;;;5061402;28;20040;-68
2021/11/06 01:41:57;;;;;;;5.72;1.60;;;8.10;99.90;;;;;;5093127;27;20056;-68
2021/11/06 01:44:26;;;;;;;6.40;1.73;;;8.10;99.90;;;;;;5061282;28;20483;-68
2021/11/06 01:46:51;;;;;;;6.70;1.67;;;8.10;99.90;;;;;;5058576;28;20052;-68
2021/11/06 01:49:20;;;;;;;6.63;1.55;;;8.10;99.90;;;;;;5063951;28;20467;-68
2021/11/06 01:51:51;;;;;;;13.32;2.25;;;8.10;99.90;;;;;;5061149;28;20091;-68
2021/11/06 01:54:16;;;;;;;6.30;1.70;;;8.20;99.90;;;;;;5059068;28;20434;-68
2021/11/06 01:56:42;;;;;;;9.13;2.33;;;8.10;99.90;;;;;;5065226;28;20045;-68
2021/11/06 01:59:09;;;;;;;4.47;1.65;;;8.10;99.90;;;;;;5062104;28;20147;-68
2021/11/06 02:01:35;;;;;;;15.15;3.28;;;8.10;99.90;;;;;;5062056;28;20052;-68
2021/11/06 02:04:02;;;;;;;8.88;2.15;;;8.10;99.90;;;;;;5092362;27;20029;-68
2021/11/06 02:06:28;;;;;;;6.05;2.17;;;8.20;99.90;;;;;;5063426;28;20575;-68
2021/11/06 02:08:54;;;;;;;9.93;2.00;;;8.20;99.90;;;;;;5065795;28;20041;-68
2021/11/06 02:11:20;;;;;;;6.95;1.95;;;8.20;99.90;;;;;;5065097;28;20063;-68
2021/11/06 02:13:46;;;;;;;12.93;2.50;;;8.10;99.90;;;;;;5059004;28;20045;-68
2021/11/06 02:16:12;;;;;;;12.25;2.70;;;8.10;99.90;;;;;;5057624;28;20052;-68
2021/11/06 02:18:38;;;;;;;9.93;2.38;;;8.20;99.90;;;;;;5061908;28;20048;-68
2021/11/06 02:21:07;;;;;;;7.00;2.63;;;8.20;99.90;;;;;;5062242;28;20453;-68
2021/11/06 02:23:35;;;;;;;10.40;2.65;;;8.10;99.90;;;;;;5060247;28;20059;-68
2021/11/06 02:26:02;;;;;;;7.63;2.65;;;8.20;99.90;;;;;;5062934;28;20048;-68
2021/11/06 02:28:27;;;;;;;10.77;4.18;;;8.10;99.90;;;;;;5068762;28;20098;-68
2021/11/06 02:30:53;;;;;;;10.23;3.38;;;8.20;99.90;;;;;;5097475;27;20567;-68
2021/11/06 02:33:19;;;;;;;12.20;3.42;;;8.20;99.90;;;;;;5067516;28;20037;-68
2021/11/06 02:35:45;;;;;;;5.95;3.00;;;8.20;99.90;;;;;;5063797;28;20491;-68
2021/11/06 02:38:11;;;;;;;9.82;2.97;;;8.20;99.90;;;;;;5064931;28;20170;-68
2021/11/06 02:40:38;;;;;;;11.25;3.40;;;8.20;99.90;;;;;;5069333;28;20123;-68
2021/11/06 02:43:04;;;;;;;11.20;3.53;;;8.20;99.90;;;;;;5062246;28;20076;-68
2021/11/06 02:45:30;;;;;;;9.10;3.47;;;8.20;99.90;;;;;;5066722;28;20041;-68
2021/11/06 02:47:56;;;;;;;10.02;4.25;;;8.20;99.90;;;;;;5068248;28;20108;-68
2021/11/06 02:50:21;;;;;;;9.95;3.97;;;8.20;99.90;;;;;;5066740;28;20043;-68
2021/11/06 02:52:47;;;;;;;13.70;3.65;;;8.20;99.90;;;;;;5063945;28;20570;-68
2021/11/06 02:55:13;;;;;;;9.27;4.18;;;8.20;99.90;;;;;;5064756;28;20040;-68
2021/11/06 02:57:39;;;;;;;9.57;4.35;;;8.20;99.90;;;;;;5068975;28;20048;-68
2021/11/06 03:00:07;;;;;;;9.38;3.80;;;8.20;99.90;;;;;;5063314;28;20045;-68
2021/11/06 03:02:33;;;;;;;12.40;5.15;;;8.20;99.90;;;;;;5061794;28;20041;-68
2021/11/06 03:05:11;;;;;;;10.48;4.65;;;8.30;99.90;;;;;;5048854;28;20039;-68
2021/11/06 03:07:37;;;;;;;17.77;5.28;;;8.20;99.90;;;;;;5066907;28;20055;-68
2021/11/06 03:10:05;;;;;;;6.07;4.47;;;8.20;99.90;;;;;;5065328;28;20040;-68
2021/11/06 03:12:31;;;;;;;15.20;6.03;;;8.30;99.90;;;;;;5065784;28;20451;-68
2021/11/06 03:14:57;;;;;;;10.93;4.13;;;8.30;99.90;;;;;;5063669;28;20129;-68
2021/11/06 03:17:23;;;;;;;11.43;5.47;;;8.30;99.90;;;;;;5064048;28;20167;-68
2021/11/06 03:19:49;;;;;;;8.43;5.22;;;8.30;99.90;;;;;;5067476;28;20075;-68
2021/11/06 03:22:15;;;;;;;9.70;5.38;;;8.40;99.90;;;;;;5065465;28;20074;-68
2021/11/06 03:24:40;;;;;;;16.95;6.10;;;8.40;99.90;;;;;;5093103;27;20082;-68
2021/11/06 03:27:06;;;;;;;11.20;6.18;;;8.30;99.90;;;;;;5066320;28;21007;-68
2021/11/06 03:29:33;;;;;;;11.50;6.03;;;8.40;99.90;;;;;;5098310;27;20497;-68
2021/11/06 03:31:59;;;;;;;11.63;5.45;;;8.40;99.90;;;;;;5065045;28;20029;-67
2021/11/06 03:34:25;;;;;;;11.50;6.00;;;8.40;99.90;;;;;;5062853;28;20086;-68
2021/11/06 03:36:51;;;;;;;11.88;6.63;;;8.40;99.90;;;;;;5066063;28;20120;-68
2021/11/06 03:39:17;;;;;;;11.63;6.55;;;8.50;99.90;;;;;;5067381;28;20036;-68
2021/11/06 03:41:43;;;;;;;11.13;6.63;;;8.50;99.90;;;;;;5066463;28;20040;-68
2021/11/06 03:44:09;;;;;;;15.13;7.80;;;8.50;99.90;;;;;;5059420;28;20051;-68
2021/11/06 03:46:36;;;;;;;14.90;7.55;;;8.50;99.90;;;;;;5060949;28;20059;-68
2021/11/06 03:49:02;;;;;;;15.02;8.55;;;8.50;99.90;;;;;;5061354;28;20127;-68
2021/11/06 03:51:28;;;;;;;16.35;8.73;;;8.60;99.90;;;;;;5062010;28;20051;-68
2021/11/06 03:53:53;;;;;;;13.18;9.07;;;8.50;99.90;;;;;;5060979;28;20044;-68
2021/11/06 03:56:19;;;;;;;19.85;9.77;;;8.50;99.90;;;;;;5064732;28;20497;-68
2021/11/06 03:58:45;;;;;;;22.58;10.23;;;8.50;99.90;;;;;;5061391;28;20048;-68
2021/11/06 04:01:11;;;;;;;17.63;10.63;;;8.60;99.90;;;;;;5063613;28;20536;-68
2021/11/06 04:03:37;;;;;;;22.13;11.52;;;8.60;99.90;;;;;;5061770;28;20036;-68
2021/11/06 04:06:03;;;;;;;18.67;11.27;;;8.60;99.90;;;;;;5064601;28;20584;-68
2021/11/06 04:08:28;;;;;;;17.25;11.55;;;8.60;99.90;;;;;;5066305;28;20044;-68
2021/11/06 04:10:54;;;;;;;19.80;12.25;;;8.70;99.90;;;;;;5064441;28;20141;-68
2021/11/06 04:13:20;;;;;;;22.83;12.38;;;8.70;99.90;;;;;;5062530;28;20123;-68
2021/11/06 04:15:46;;;;;;;22.55;12.18;;;8.70;99.90;;;;;;5064145;28;20040;-68
2021/11/06 04:18:12;;;;;;;17.63;12.82;;;8.70;99.90;;;;;;5065740;28;20123;-68
2021/11/06 04:20:37;;;;;;;24.15;12.98;;;8.80;99.90;;;;;;5047304;28;20104;-68
2021/11/06 04:23:03;;;;;;;25.25;14.95;;;8.70;99.90;;;;;;5090707;27;20040;-68
2021/11/06 04:25:29;;;;;;;35.97;13.45;;;8.80;99.90;;;;;;5063711;28;20886;-68
2021/11/06 04:27:55;;;;;;;23.17;13.43;;;8.80;99.90;;;;;;5099143;27;20327;-67
2021/11/06 04:30:22;;;;;;;17.23;13.60;;;8.80;99.90;;;;;;5065176;28;20123;-68
2021/11/06 04:32:47;;;;;;;20.27;13.63;;;8.80;99.90;;;;;;5058905;28;20048;-68
2021/11/06 04:35:13;;;;;;;18.60;13.43;;;8.80;99.90;;;;;;5065661;28;20058;-68
2021/11/06 04:37:39;;;;;;;21.60;13.98;;;8.80;99.90;;;;;;5065132;28;20045;-68
2021/11/06 04:40:07;;;;;;;18.50;14.40;;;8.80;99.90;;;;;;5062804;28;20045;-68
2021/11/06 04:42:32;;;;;;;22.25;14.77;;;8.90;99.90;;;;;;5091645;27;20446;-68
2021/11/06 04:44:58;;;;;;;20.90;15.52;;;8.80;99.90;;;;;;5063996;28;20073;-68
2021/11/06 04:47:24;;;;;;;23.27;14.90;;;8.90;99.90;;;;;;5097853;27;20128;-68
2021/11/06 04:49:50;;;;;;;25.30;16.00;;;8.90;99.90;;;;;;5067203;28;20047;-68
2021/11/06 04:52:15;;;;;;;23.00;15.90;;;8.90;99.90;;;;;;5063084;28;20052;-68
2021/11/06 04:54:41;;;;;;;24.33;16.63;;;8.90;99.90;;;;;;5063844;28;20059;-68
2021/11/06 04:57:07;;;;;;;26.58;17.85;;;8.90;99.90;;;;;;5064537;28;20478;-68
2021/11/06 04:59:33;;;;;;;25.60;16.70;;;8.90;99.90;;;;;;5060921;28;20071;-68
2021/11/06 05:02:00;;;;;;;24.45;16.73;;;8.90;99.90;;;;;;5064792;28;20482;-68
2021/11/06 05:04:26;;;;;;;22.83;16.30;;;8.90;99.90;;;;;;5091898;28;20067;-68
2021/11/06 05:06:52;;;;;;;25.50;15.43;;;8.90;99.90;;;;;;5063811;28;20386;-68
2021/11/06 05:09:18;;;;;;;21.98;16.55;;;8.90;99.90;;;;;;5064825;28;20037;-68
2021/11/06 05:11:44;;;;;;;21.17;15.43;;;8.90;99.90;;;;;;5065423;28;20051;-68
2021/11/06 05:14:09;;;;;;;19.40;15.88;;;8.80;99.90;;;;;;5059493;28;20048;-68
2021/11/06 05:16:35;;;;;;;22.00;16.08;;;8.80;99.90;;;;;;5056792;28;20074;-68
2021/11/06 05:19:01;;;;;;;21.08;14.85;;;8.80;99.90;;;;;;5057076;28;20049;-68
2021/11/06 05:21:35;;;;;;;25.60;15.57;;;8.80;99.90;;;;;;5088242;28;21130;-68
2021/11/06 05:24:01;;;;;;;20.50;16.00;;;8.80;99.90;;;;;;5084564;28;20032;-68
2021/11/06 05:26:26;;;;;;;22.25;15.90;;;8.80;99.90;;;;;;5088386;28;20069;-68
2021/11/06 05:28:52;;;;;;;26.05;15.70;;;8.80;99.90;;;;;;5055280;28;20711;-68
2021/11/06 05:31:17;;;;;;;22.33;17.25;;;8.80;99.90;;;;;;5056300;28;20045;-68
2021/11/06 05:33:43;;;;;;;25.00;16.98;;;8.70;99.90;;;;;;5051877;28;20082;-68
2021/11/06 05:36:09;;;;;;;18.92;16.02;;;8.80;99.90;;;;;;5055827;28;20132;-68
2021/11/06 05:38:34;;;;;;;20.63;16.63;;;8.70;99.90;;;;;;5059132;28;20087;-68
2021/11/06 05:41:01;;;;;;;23.08;16.38;;;8.80;99.90;;;;;;5054018;28;20056;-68
2021/11/06 05:43:26;;;;;;;23.63;17.00;;;8.80;99.90;;;;;;5051184;28;20037;-68
2021/11/06 05:45:52;;;;;;;27.13;17.63;;;8.80;99.90;;;;;;5055846;28;20040;-68
2021/11/06 05:48:17;;;;;;;23.55;17.15;;;8.80;99.90;;;;;;5058726;28;21666;-68
2021/11/06 05:50:43;;;;;;;22.45;17.15;;;8.80;99.90;;;;;;5054801;28;20145;-68
2021/11/06 05:53:09;;;;;;;28.30;16.48;;;8.70;99.90;;;;;;5085259;28;20041;-68
2021/11/06 05:55:34;;;;;;;21.45;16.90;;;8.70;99.90;;;;;;5055377;28;20449;-68
2021/11/06 05:58:00;;;;;;;22.45;17.48;;;8.80;99.90;;;;;;5055111;28;20487;-68
2021/11/06 06:00:26;;;;;;;25.73;17.55;;;8.80;99.90;;;;;;5054880;28;20054;-68
2021/11/06 06:02:52;;;;;;;24.25;17.50;;;8.80;99.90;;;;;;5055468;28;20094;-68
2021/11/06 06:05:18;;;;;;;22.23;17.88;;;8.80;99.90;;;;;;5057017;28;20044;-68
2021/11/06 06:07:45;;;;;;;28.00;16.58;;;8.80;99.90;;;;;;5055234;28;20033;-68
2021/11/06 06:10:14;;;;;;;24.92;19.08;;;8.70;99.90;;;;;;5056176;28;20137;-68
2021/11/06 06:12:40;;;;;;;21.70;17.67;;;8.70;99.90;;;;;;5059194;28;20047;-68
2021/11/06 06:15:06;;;;;;;25.77;18.30;;;8.80;99.90;;;;;;5092413;27;20040;-68
2021/11/06 06:17:32;;;;;;;27.45;18.08;;;8.80;99.90;;;;;;5059669;28;20554;-68
2021/11/06 06:19:58;;;;;;;26.02;17.77;;;8.80;99.90;;;;;;5058340;28;20119;-68
2021/11/06 06:22:25;;;;;;;23.27;17.75;;;8.80;99.90;;;;;;5087534;28;20052;-68
2021/11/06 06:24:51;;;;;;;24.52;17.27;;;8.80;99.90;;;;;;5058814;28;20049;-68
2021/11/06 06:27:16;;;;;;;31.45;18.95;;;8.80;99.90;;;;;;5088931;27;20055;-68
2021/11/06 06:29:42;;;;;;;29.45;18.13;;;8.80;99.90;;;;;;5057115;28;20048;-68
2021/11/06 06:32:08;;;;;;;21.23;17.08;;;8.80;99.90;;;;;;5058266;28;20402;-68
2021/11/06 06:34:34;;;;;;;27.80;17.80;;;8.80;99.90;;;;;;5057580;28;20029;-68
2021/11/06 06:37:00;;;;;;;24.80;18.90;;;8.80;99.90;;;;;;5056890;28;20162;-68
2021/11/06 06:39:25;;;;;;;29.05;18.67;;;8.90;99.90;;;;;;5057611;28;21612;-68
2021/11/06 06:41:51;;;;;;;25.17;18.85;;;8.90;99.90;;;;;;5059812;28;20084;-68
2021/11/06 06:44:17;;;;;;;32.53;19.35;;;8.90;99.90;;;;;;5054238;28;20039;-68
2021/11/06 06:46:42;;;;;;;32.25;19.40;;;8.90;99.90;;;;;;5061419;28;20036;-68
2021/11/06 06:49:08;;;;;;;30.52;19.27;;;8.90;99.90;;;;;;5059732;28;20041;-68
2021/11/06 06:51:34;;;;;;;26.50;19.52;;;8.90;99.90;;;;;;5055078;28;20398;-68
2021/11/06 06:54:00;;;;;;;28.70;20.40;;;8.90;99.90;;;;;;5056019;28;20044;-68
2021/11/06 06:56:26;;;;;;;28.20;19.95;;;8.90;99.90;;;;;;5055199;28;20102;-68
2021/11/06 06:58:51;;;;;;;30.73;20.38;;;8.90;99.90;;;;;;5055356;28;20136;-68
2021/11/06 07:01:17;;;;;;;28.63;21.42;;;8.90;99.90;;;;;;5055882;28;20047;-68
2021/11/06 07:03:43;;;;;;;34.03;20.80;;;8.90;99.90;;;;;;5054186;28;20045;-68
2021/11/06 07:06:09;;;;;;;30.83;20.83;;;9.00;99.90;;;;;;5057530;28;21064;-68
2021/11/06 07:08:34;;;;;;;28.77;20.23;;;8.90;99.90;;;;;;5058398;28;20089;-68
2021/11/06 07:11:00;;;;;;;27.80;18.83;;;9.00;99.90;;;;;;5053991;28;20040;-68
2021/11/06 07:13:28;;;;;;;28.98;21.17;;;9.00;99.90;;;;;;5051732;28;21185;-68
2021/11/06 07:15:53;;;;;;;35.95;21.45;;;9.00;99.90;;;;;;5058113;28;20048;-68
2021/11/06 07:18:20;;;;;;;26.05;20.10;;;9.00;99.90;;;;;;5053491;28;20071;-68
2021/11/06 07:20:45;;;;;;;28.63;20.73;;;8.90;99.90;;;;;;5054082;28;20050;-68
2021/11/06 07:23:11;;;;;;;31.13;19.85;;;9.00;99.90;;;;;;5054128;28;20049;-68
2021/11/06 07:25:37;;;;;;;27.45;20.27;;;9.00;99.90;;;;;;5055452;28;20042;-68
2021/11/06 07:28:03;;;;;;;31.77;19.42;;;9.00;99.90;;;;;;5063962;28;20060;-68
2021/11/06 07:30:29;;;;;;;28.10;18.67;;;9.00;99.90;;;;;;5059602;28;20089;-68
2021/11/06 07:32:55;;;;;;;31.80;20.42;;;9.00;99.90;;;;;;5055109;28;20052;-68
2021/11/06 07:35:21;;;;;;;28.35;19.98;;;9.00;99.90;;;;;;5056588;28;20047;-68
2021/11/06 07:37:47;;;;;;;25.35;19.25;;;9.10;99.90;;;;;;5057594;28;20043;-68
2021/11/06 07:40:14;;;;;;;26.30;19.85;;;9.10;99.90;;;;;;5055279;28;20036;-68
2021/11/06 07:42:42;;;;;;;23.98;19.25;;;9.00;99.90;;;;;;5054516;28;20082;-68
2021/11/06 07:45:10;;;;;;;31.00;18.35;;;9.10;99.90;;;;;;5043365;28;20040;-68
2021/11/06 07:47:36;;;;;;;29.10;18.15;;;9.10;99.90;;;;;;5057700;28;20422;-68
2021/11/06 07:50:04;;;;;;;26.38;18.58;;;9.10;99.90;;;;;;5057767;28;20037;-68
2021/11/06 07:52:30;;;;;;;21.88;18.33;;;9.10;99.90;;;;;;5056558;28;20040;-68
2021/11/06 07:54:55;;;;;;;25.60;18.48;;;9.10;99.90;;;;;;5058219;28;20047;-68
2021/11/06 07:57:21;;;;;;;28.48;18.52;;;9.10;99.90;;;;;;5055848;28;20052;-68
2021/11/06 07:59:47;;;;;;;29.58;19.65;;;9.10;99.90;;;;;;5056112;28;20089;-68
2021/11/06 08:02:13;;;;;;;25.70;19.77;;;9.10;99.90;;;;;;5057757;28;20853;-68
2021/11/06 08:04:39;;;;;;;26.90;18.50;;;9.10;99.90;;;;;;5057050;28;20036;-68
2021/11/06 08:07:04;;;;;;;28.23;20.05;;;9.20;99.90;;;;;;5056792;28;20977;-68
2021/11/06 08:09:30;;;;;;;27.05;19.02;;;9.10;99.90;;;;;;5056456;28;20114;-68
2021/11/06 08:11:56;;;;;;;29.27;19.30;;;9.20;99.90;;;;;;5055853;28;20040;-68
2021/11/06 08:14:22;;;;;;;28.35;18.48;;;9.20;99.90;;;;;;5053119;28;20032;-68
2021/11/06 08:16:49;;;;;;;26.25;18.42;;;9.20;99.90;;;;;;5057216;28;20080;-68
2021/11/06 08:19:16;;;;;;;31.05;19.42;;;9.20;99.90;;;;;;5056472;28;20040;-68
2021/11/06 08:21:42;;;;;;;24.48;17.95;;;9.20;99.90;;;;;;5054281;28;20044;-68
2021/11/06 08:24:08;;;;;;;25.27;18.02;;;9.20;99.90;;;;;;5086920;27;20043;-68
2021/11/06 08:26:34;;;;;;;24.23;18.20;;;9.20;99.90;;;;;;5063175;28;20495;-68
2021/11/06 08:29:00;;;;;;;28.65;18.73;;;9.20;99.90;;;;;;5058630;28;20045;-68
2021/11/06 08:31:25;;;;;;;27.42;18.17;;;9.20;99.90;;;;;;5055164;28;20047;-68
2021/11/06 08:33:51;;;;;;;39.85;18.98;;;9.20;99.90;;;;;;5052602;28;20163;-68
2021/11/06 08:36:17;;;;;;;40.90;18.85;;;9.30;99.90;;;;;;5056717;28;20683;-68
2021/11/06 08:38:43;;;;;;;30.73;19.77;;;9.30;99.90;;;;;;5055746;28;20029;-68
2021/11/06 08:41:09;;;;;;;34.58;18.35;;;9.30;99.90;;;;;;5054377;28;20066;-68
2021/11/06 08:43:35;;;;;;;29.05;17.92;;;9.30;99.90;;;;;;5052647;28;20425;-68
2021/11/06 08:46:01;;;;;;;22.48;15.77;;;9.30;99.90;;;;;;5062729;28;20034;-68
2021/11/06 08:48:27;;;;;;;28.15;17.23;;;9.30;99.90;;;;;;5056776;28;20127;-68
2021/11/06 08:50:53;;;;;;;29.90;18.63;;;9.40;99.90;;;;;;5057555;28;20044;-68
2021/11/06 08:53:19;;;;;;;24.33;17.10;;;9.50;99.90;;;;;;5053736;28;20083;-68
2021/11/06 08:55:45;;;;;;;36.88;17.83;;;9.40;99.90;;;;;;5060127;28;20123;-68
2021/11/06 08:58:12;;;;;;;31.30;17.77;;;9.70;99.90;;;;;;5055777;28;20041;-68
2021/11/06 09:00:42;;;;;;;27.02;18.00;;;9.50;99.90;;;;;;5054301;28;20131;-68
2021/11/06 09:03:12;;;;;;;25.23;16.95;;;9.50;99.90;;;;;;5051786;28;20072;-68
2021/11/06 09:05:41;;;;;;;29.60;17.85;;;9.50;99.90;;;;;;5055932;28;20036;-68
2021/11/06 09:08:07;;;;;;;26.88;17.27;;;9.50;99.90;;;;;;5059061;28;20068;-68
2021/11/06 09:10:34;;;;;;;29.85;17.00;;;9.50;99.90;;;;;;5058045;28;20490;-68
2021/11/06 09:12:59;;;;;;;29.13;17.88;;;9.50;99.90;;;;;;5054027;28;20055;-68
2021/11/06 09:15:25;;;;;;;28.10;17.23;;;9.50;99.90;;;;;;5058423;28;20414;-68
2021/11/06 09:17:51;;;;;;;29.08;18.27;;;9.60;99.90;;;;;;5055235;28;20521;-68
2021/11/06 09:20:17;;;;;;;31.67;17.48;;;9.60;99.90;;;;;;5058188;28;20075;-68
2021/11/06 09:22:43;;;;;;;34.13;17.75;;;9.70;99.90;;;;;;5056773;28;20145;-68
2021/11/06 09:25:09;;;;;;;28.73;17.75;;;9.80;99.90;;;;;;5054977;28;20032;-68
2021/11/06 09:27:36;;;;;;;31.17;17.48;;;9.80;99.90;;;;;;5056927;28;20039;-68
2021/11/06 09:30:04;;;;;;;29.58;16.83;;;9.90;99.90;;;;;;5056314;28;20056;-68
2021/11/06 09:32:30;;;;;;;23.70;16.67;;;9.90;99.90;;;;;;5055056;28;20125;-68
2021/11/06 09:34:55;;;;;;;26.38;16.38;;;10.00;99.90;;;;;;5054363;28;20040;-68
2021/11/06 09:37:21;;;;;;;28.60;17.70;;;10.10;99.90;;;;;;5055566;28;20067;-68
2021/11/06 09:39:47;;;;;;;28.92;16.67;;;10.10;99.90;;;;;;5056171;28;20507;-68
2021/11/06 09:42:13;;;;;;;26.63;17.23;;;10.10;99.90;;;;;;5054875;28;20097;-68
2021/11/06 09:44:39;;;;;;;29.95;17.90;;;10.10;99.90;;;;;;5055754;28;20040;-68
2021/11/06 09:47:12;;;;;;;28.75;16.88;;;10.10;99.90;;;;;;5093073;27;20043;-68
2021/11/06 09:49:38;;;;;;;26.20;16.95;;;10.20;99.90;;;;;;5062258;28;20040;-68
2021/11/06 09:52:04;;;;;;;28.70;15.63;;;10.20;99.90;;;;;;5093366;27;20054;-68
2021/11/06 09:54:30;;;;;;;29.83;16.58;;;10.20;99.90;;;;;;5057867;28;20044;-69
2021/11/06 09:56:57;;;;;;;28.25;16.17;;;10.30;99.90;;;;;;5061400;28;20495;-69
2021/11/06 09:59:22;;;;;;;31.48;15.18;;;10.30;99.90;;;;;;5058552;28;20676;-69
2021/11/06 10:01:49;;;;;;;23.67;15.45;;;10.30;99.90;;;;;;5059949;28;20117;-69
2021/11/06 10:04:15;;;;;;;33.17;14.25;;;10.40;99.90;;;;;;5090396;27;20508;-69
2021/11/06 10:06:44;;;;;;;29.73;15.60;;;10.30;99.90;;;;;;5058964;28;20065;-69
2021/11/06 10:09:13;;;;;;;22.27;15.15;;;10.40;99.90;;;;;;5091887;27;20048;-69
2021/11/06 10:11:46;;;;;;;30.65;15.30;;;10.40;99.90;;;;;;5090666;27;20501;-69
2021/11/06 10:14:17;;;;;;;28.80;15.25;;;10.40;99.90;;;;;;5056965;28;20127;-69
2021/11/06 10:16:52;;;;;;;26.58;15.93;;;10.40;99.90;;;;;;5059172;28;20059;-69
2021/11/06 10:19:20;;;;;;;25.10;15.15;;;10.40;99.90;;;;;;5059481;28;20040;-69
2021/11/06 10:22:07;;;;;;;26.60;15.02;;;10.40;99.90;;;;;;5059217;28;20045;-69
2021/11/06 10:25:01;;;;;;;25.67;15.90;;;10.50;99.90;;;;;;5057763;28;20066;-69
2021/11/06 10:27:26;;;;;;;27.20;14.93;;;10.50;99.90;;;;;;5066778;28;20044;-70
2021/11/06 10:30:06;;;;;;;27.95;15.35;;;10.50;99.90;;;;;;5058720;28;20052;-69
2021/11/06 10:32:35;;;;;;;26.00;15.65;;;10.50;99.90;;;;;;5055483;28;20051;-70
2021/11/06 10:35:14;;;;;;;24.00;15.00;;;10.50;99.90;;;;;;5061222;28;20042;-69
2021/11/06 10:37:40;;;;;;;26.00;14.70;;;10.40;99.90;;;;;;5088553;27;20387;-70
2021/11/06 10:40:09;;;;;;;24.30;14.43;;;10.50;99.90;;;;;;5056975;28;20032;-70
2021/11/06 10:42:55;;;;;;;25.80;14.65;;;10.40;99.90;;;;;;5056615;28;21084;-71
2021/11/06 10:45:27;;;;;;;20.75;13.85;;;10.50;99.90;;;;;;5099321;27;20047;-70
2021/11/06 10:48:08;;;;;;;35.38;16.08;;;10.50;99.90;;;;;;5065276;28;20050;-70
2021/11/06 10:51:03;;;;;;;25.70;14.07;;;10.60;99.90;;;;;;5097347;27;20036;-70
2021/11/06 10:53:50;;;;;;;21.35;13.25;;;10.60;99.90;;;;;;5060572;28;20057;-70
2021/11/06 10:56:23;;;;;;;24.70;13.77;;;10.60;99.90;;;;;;5064638;28;20514;-69
2021/11/06 10:58:52;;;;;;;29.52;15.23;;;10.60;99.90;;;;;;5064615;28;20071;-70
2021/11/06 11:01:30;;;;;;;22.63;14.15;;;10.60;99.90;;;;;;5065660;28;20127;-70
2021/11/06 11:04:18;;;;;;;26.95;14.43;;;10.70;99.90;;;;;;5060864;28;20056;-70
2021/11/06 11:06:55;;;;;;;30.20;12.93;;;10.70;99.90;;;;;;5064829;28;20047;-70
2021/11/06 11:09:43;;;;;;;24.83;13.77;;;10.70;99.90;;;;;;5063910;28;21647;-69
2021/11/06 11:12:18;;;;;;;22.33;13.20;;;10.70;99.90;;;;;;5064661;28;20552;-69
2021/11/06 11:14:55;;;;;;;20.90;12.75;;;10.80;99.90;;;;;;5059814;28;20051;-70
2021/11/06 11:17:40;;;;;;;24.27;13.48;;;10.80;99.90;;;;;;5064602;28;20116;-69
2021/11/06 11:20:24;;;;;;;20.37;12.43;;;10.80;99.90;;;;;;5065629;28;20048;-70
2021/11/06 11:23:14;;;;;;;21.73;12.15;;;10.80;99.90;;;;;;5092712;27;20307;-70
2021/11/06 11:25:42;;;;;;;20.17;11.15;;;10.90;99.90;;;;;;5061156;28;20110;-70
2021/11/06 11:28:09;;;;;;;20.75;12.07;;;10.90;99.90;;;;;;5066552;28;20055;-70
2021/11/06 11:30:36;;;;;;;23.95;11.57;;;10.90;99.90;;;;;;5082060;28;20140;-70
2021/11/06 11:33:03;;;;;;;22.33;11.68;;;10.90;99.90;;;;;;5057957;28;21404;-70
2021/11/06 11:35:29;;;;;;;19.83;12.32;;;11.00;99.90;;;;;;5062795;28;20048;-70
2021/11/06 11:37:58;;;;;;;19.98;10.85;;;11.00;99.90;;;;;;5064727;28;20055;-70
2021/11/06 11:40:28;;;;;;;19.75;10.15;;;11.10;99.90;;;;;;5065523;28;20041;-70
2021/11/06 11:43:22;;;;;;;21.95;10.63;;;11.10;99.90;;;;;;5064016;28;20127;-70
2021/11/06 11:45:53;;;;;;;22.88;10.10;;;11.10;99.90;;;;;;5064001;28;20528;-70
2021/11/06 11:48:24;;;;;;;20.27;10.43;;;11.20;99.90;;;;;;5075193;28;20051;-70
2021/11/06 11:50:56;;;;;;;27.90;10.82;;;11.10;99.90;;;;;;5060384;28;20136;-70
2021/11/06 11:53:30;;;;;;;26.50;11.00;;;11.10;99.90;;;;;;5089955;27;20127;-70
2021/11/06 11:55:57;;;;;;;20.50;9.63;;;11.10;99.90;;;;;;5059915;28;20090;-70
2021/11/06 11:58:26;;;;;;;21.05;10.40;;;11.20;99.90;;;;;;5065445;28;20033;-70
2021/11/06 12:00:58;;;;;;;18.00;9.75;;;11.20;99.90;;;;;;5064157;28;20200;-69
2021/11/06 12:03:34;;;;;;;22.15;10.27;;;11.20;99.90;;;;;;5061214;28;20048;-70
2021/11/06 12:06:39;;;;;;;22.15;9.57;;;11.20;99.90;;;;;;5062691;28;20069;-70
2021/11/06 12:09:11;;;;;;;18.08;8.77;;;11.10;99.90;;;;;;5085640;28;20040;-69
2021/11/06 12:11:53;;;;;;;16.63;9.20;;;11.20;99.90;;;;;;5058869;28;20056;-70
2021/11/06 12:14:28;;;;;;;20.17;9.32;;;11.20;99.90;;;;;;5059652;28;20044;-70
2021/11/06 12:17:29;;;;;;;16.02;9.63;;;11.20;99.90;;;;;;5061547;28;20053;-70
2021/11/06 12:19:57;;;;;;;18.15;8.30;;;11.20;99.90;;;;;;5063334;28;20056;-69
2021/11/06 12:22:32;;;;;;;14.10;7.72;;;11.20;99.90;;;;;;5065212;28;20052;-70
2021/11/06 12:25:22;;;;;;;19.02;8.98;;;11.20;99.90;;;;;;5061780;28;20090;-70
2021/11/06 12:28:06;;;;;;;22.88;9.27;;;11.20;99.90;;;;;;5065253;28;20360;-70
2021/11/06 12:30:35;;;;;;;16.05;9.15;;;11.20;99.90;;;;;;5064246;28;20048;-70
2021/11/06 12:33:04;;;;;;;22.38;9.68;;;11.20;99.90;;;;;;5060304;28;20056;-70
2021/11/06 12:35:30;;;;;;;17.40;8.93;;;11.20;99.90;;;;;;5057339;28;20848;-70
2021/11/06 12:37:58;;;;;;;16.98;8.13;;;11.20;99.90;;;;;;5064187;28;20055;-70
2021/11/06 12:40:31;;;;;;;19.95;8.75;;;11.20;99.90;;;;;;5063056;28;20040;-69
2021/11/06 12:43:16;;;;;;;18.55;7.97;;;11.30;99.90;;;;;;5059659;28;20049;-70
2021/11/06 12:45:47;;;;;;;19.75;7.68;;;11.30;99.90;;;;;;5091210;28;20105;-69